Time;durP1;ratioP1;P1;durP2;ratioP2;P2;SDS_P1;SDS_P2;PMS_P1;PMS_P2;Temp;Humidity;BMP_temperature;BMP_pressure;BME280_temperature;BME280_humidity;BME280_pressure;Samples;Min_cycle;Max_cycle;Signal;HPM_P1;HPM_P2
2023/01/27 00:00:49;;;;;;;27.00;12.80;;;;;;;-1.42;78.42;99271.05;105263;1263;74086;-25
2023/01/27 00:03:17;;;;;;;24.80;10.60;;;;;;;-1.59;78.79;99268.64;105132;1262;61187;-25
2023/01/27 00:05:45;;;;;;;23.70;11.00;;;;;;;-1.74;79.13;99269.20;105040;1266;61760;-25
2023/01/27 00:08:12;;;;;;;18.70;7.60;;;;;;;-1.83;79.49;99272.36;104870;1263;73372;-25
2023/01/27 00:10:40;;;;;;;16.50;8.40;;;;;;;-1.29;79.80;99273.55;105015;1263;75818;-25
2023/01/27 00:13:27;;;;;;;15.20;8.00;;;;;;;-0.58;78.59;99270.58;104972;1264;74356;-25
2023/01/27 00:15:56;;;;;;;19.30;8.20;;;;;;;-0.43;77.23;99273.69;104898;1263;61745;-25
2023/01/27 00:18:24;;;;;;;17.90;8.20;;;;;;;-0.61;76.99;99271.86;104906;1266;61895;-25
2023/01/27 00:26:24;;;;;;;20.10;9.30;;;;;;;-1.41;78.61;99277.67;105267;1262;74468;-25
2023/01/27 00:28:51;;;;;;;18.30;8.20;;;;;;;-1.59;79.17;99277.31;105183;1263;61087;-25
2023/01/27 00:34:08;;;;;;;17.20;7.70;;;;;;;-0.71;78.69;99276.61;105195;1263;74387;-25
2023/01/27 00:36:37;;;;;;;14.90;7.50;;;;;;;-0.49;77.63;99272.00;105108;1264;75875;-25
2023/01/27 00:39:05;;;;;;;16.00;8.60;;;;;;;-0.59;77.19;99270.97;105108;1263;74209;-25
2023/01/27 00:41:34;;;;;;;23.90;9.50;;;;;;;-0.80;77.32;99272.65;104938;1264;61151;-25
2023/01/27 00:44:01;;;;;;;18.40;9.00;;;;;;;-1.03;77.74;99275.73;105434;1262;61218;-25
2023/01/27 00:46:30;;;;;;;13.70;7.30;;;;;;;-1.22;77.92;99273.73;105465;1260;74396;-25
2023/01/27 00:48:57;;;;;;;20.30;8.90;;;;;;;-1.45;78.90;99277.62;105381;1260;75897;-25
2023/01/27 00:51:24;;;;;;;12.70;5.70;;;;;;;-1.58;79.25;99274.94;105406;1257;73901;-25
2023/01/27 00:53:52;;;;;;;21.30;8.60;;;;;;;-1.10;79.34;99275.91;105099;1258;61384;-25
2023/01/27 00:56:19;;;;;;;16.50;8.40;;;;;;;-0.44;78.22;99272.51;105242;1263;61872;-25
2023/01/27 00:58:46;;;;;;;16.70;7.80;;;;;;;-0.31;77.08;99270.04;105320;1257;74561;-25
2023/01/27 01:01:14;;;;;;;20.30;8.70;;;;;;;-0.46;76.94;99269.85;105413;1257;75669;-25
2023/01/27 01:03:42;;;;;;;19.80;8.30;;;;;;;-0.70;77.06;99267.73;105330;1254;74164;-25
2023/01/27 01:06:12;;;;;;;21.20;9.40;;;;;;;-0.95;77.52;99270.36;105522;1258;61052;-25
2023/01/27 01:08:39;;;;;;;19.30;8.20;;;;;;;-1.17;78.22;99264.88;105446;1254;61139;-25
2023/01/27 01:11:08;;;;;;;22.50;11.10;;;;;;;-1.36;78.52;99265.27;105516;1258;74609;-25
2023/01/27 01:13:35;;;;;;;14.80;6.00;;;;;;;-1.50;79.56;99267.69;105623;1261;75866;-25
2023/01/27 01:16:20;;;;;;;21.30;9.90;;;;;;;-1.03;79.37;99264.11;105653;1258;74153;-25
2023/01/27 01:18:48;;;;;;;19.10;9.10;;;;;;;-0.35;77.95;99259.28;105611;1255;61151;-25
2023/01/27 01:21:15;;;;;;;19.60;8.80;;;;;;;-0.29;76.98;99258.06;105693;1260;61179;-25
2023/01/27 01:23:44;;;;;;;22.80;10.00;;;;;;;-0.47;76.93;99257.61;105686;1254;74280;-25
2023/01/27 01:26:14;;;;;;;23.40;10.30;;;;;;;-0.72;77.28;99250.05;105530;1254;75827;-25
2023/01/27 01:28:43;;;;;;;22.60;10.40;;;;;;;-0.98;77.94;99253.41;105378;1254;74220;-25
2023/01/27 01:31:14;;;;;;;21.20;9.70;;;;;;;-1.20;78.47;99252.02;105343;1262;61238;-25
2023/01/27 01:33:42;;;;;;;22.50;10.60;;;;;;;-1.37;78.98;99248.09;105425;1262;61596;-25
2023/01/27 01:36:12;;;;;;;15.60;7.10;;;;;;;-1.49;79.66;99250.98;105599;1254;74570;-25
2023/01/27 01:38:39;;;;;;;19.90;8.90;;;;;;;-0.95;79.87;99244.61;105638;1261;74316;-25
2023/01/27 01:41:09;;;;;;;22.60;9.80;;;;;;;-0.27;78.39;99245.86;105697;1257;74208;-25
2023/01/27 01:43:36;;;;;;;19.50;9.10;;;;;;;-0.15;77.00;99246.82;105328;1254;62237;-25
2023/01/27 01:46:06;;;;;;;18.10;8.90;;;;;;;-0.32;77.02;99246.73;105584;1255;61597;-25
2023/01/27 01:48:47;;;;;;;17.50;8.70;;;;;;;-0.57;77.34;99246.18;105267;1254;74393;-25
2023/01/27 01:51:35;;;;;;;21.70;10.00;;;;;;;-0.86;78.05;99250.80;105326;1262;76145;-25
2023/01/27 01:54:12;;;;;;;20.40;9.10;;;;;;;-1.08;78.64;99246.21;105269;1257;74102;-25
2023/01/27 01:56:48;;;;;;;14.80;8.10;;;;;;;-1.27;79.00;99242.86;105266;1257;61305;-25
2023/01/27 01:59:22;;;;;;;14.80;7.50;;;;;;;-1.36;79.58;99235.98;105258;1262;61803;-25
2023/01/27 02:01:55;;;;;;;17.50;8.10;;;;;;;-0.64;79.46;99235.13;105306;1254;75428;-25
2023/01/27 02:04:27;;;;;;;22.80;9.50;;;;;;;-0.09;77.95;99236.70;105404;1254;75783;-25
2023/01/27 02:06:58;;;;;;;17.90;9.40;;;;;;;-0.09;76.65;99234.68;105592;1258;74224;-25
2023/01/27 02:09:29;;;;;;;18.20;8.80;;;;;;;-0.31;76.87;99237.96;105556;1261;61217;-25
2023/01/27 02:11:56;;;;;;;18.50;9.20;;;;;;;-0.56;77.30;99239.83;105711;1260;61710;-25
2023/01/27 02:14:24;;;;;;;22.00;11.00;;;;;;;-0.80;77.77;99247.07;105663;1260;75205;-25
2023/01/27 02:16:52;;;;;;;20.20;10.10;;;;;;;-1.02;78.12;99246.54;105723;1259;75828;-25
2023/01/27 02:19:34;;;;;;;23.00;10.80;;;;;;;-1.20;78.56;99247.09;105490;1257;74044;-25
2023/01/27 02:22:02;;;;;;;15.60;7.60;;;;;;;-1.31;79.54;99243.31;105619;1255;61575;-25
2023/01/27 02:24:35;;;;;;;14.70;6.70;;;;;;;-0.61;79.50;99242.87;105651;1259;61262;-25
2023/01/27 02:27:03;;;;;;;17.00;8.60;;;;;;;0.04;77.51;99242.25;105539;1255;75532;-25
2023/01/27 02:29:30;;;;;;;19.60;8.30;;;;;;;0.09;76.57;99239.70;105627;1254;75723;-25
2023/01/27 02:31:58;;;;;;;22.50;10.20;;;;;;;-0.09;76.31;99238.61;105712;1254;74196;-25
2023/01/27 02:34:29;;;;;;;25.00;10.30;;;;;;;-0.36;76.46;99240.37;105657;1257;61064;-25
2023/01/27 02:36:59;;;;;;;18.90;9.70;;;;;;;-0.62;77.25;99240.20;105620;1261;61693;-25
2023/01/27 02:39:31;;;;;;;21.80;10.00;;;;;;;-0.89;77.96;99241.71;105620;1262;75327;-25
2023/01/27 02:41:58;;;;;;;18.70;9.50;;;;;;;-1.11;78.47;99240.00;105438;1263;75166;-26
2023/01/27 02:44:25;;;;;;;21.60;10.90;;;;;;;-1.27;78.80;99237.42;105553;1257;73933;-25
2023/01/27 02:46:53;;;;;;;14.80;6.70;;;;;;;-1.37;79.12;99235.84;105682;1260;62740;-25
2023/01/27 02:49:20;;;;;;;20.10;8.30;;;;;;;-0.83;79.45;99232.83;105344;1259;61621;-26
2023/01/27 02:51:47;;;;;;;17.90;8.70;;;;;;;-0.09;78.06;99229.39;105545;1254;75407;-25
2023/01/27 02:54:15;;;;;;;22.30;11.30;;;;;;;0.07;77.22;99226.58;105532;1254;75664;-25
2023/01/27 02:56:42;;;;;;;19.30;10.10;;;;;;;-0.06;76.50;99226.20;105640;1256;74188;-25
2023/01/27 02:59:10;;;;;;;18.20;9.40;;;;;;;-0.30;76.70;99223.77;105684;1260;61192;-25
2023/01/27 03:01:39;;;;;;;19.50;10.40;;;;;;;-0.53;76.98;99226.27;105612;1260;61838;-25
2023/01/27 03:04:09;;;;;;;23.20;10.20;;;;;;;-0.79;77.58;99223.99;105586;1254;75333;-25
2023/01/27 03:06:37;;;;;;;18.50;9.80;;;;;;;-1.01;77.92;99221.98;105528;1262;74752;-24
2023/01/27 03:09:04;;;;;;;20.80;9.60;;;;;;;-1.22;78.35;99224.98;105629;1259;74203;-24
2023/01/27 03:14:18;;;;;;;21.10;10.10;;;;;;;-0.14;78.10;99222.89;105566;1261;61555;-25
2023/01/27 03:19:33;;;;;;;22.80;10.40;;;;;;;0.05;76.46;99222.42;105627;1260;75681;-25
2023/01/27 03:22:00;;;;;;;15.10;8.00;;;;;;;-0.20;76.50;99222.77;105628;1259;74177;-25
2023/01/27 03:24:30;;;;;;;20.30;8.90;;;;;;;-0.45;76.77;99220.20;105650;1254;61059;-25
2023/01/27 03:27:00;;;;;;;19.90;10.00;;;;;;;-0.70;77.28;99222.16;105423;1259;61286;-25
2023/01/27 03:29:54;;;;;;;25.30;11.40;;;;;;;-0.94;78.09;99214.77;105529;1259;75435;-25
2023/01/27 03:32:23;;;;;;;19.60;10.70;;;;;;;-1.12;78.13;99214.65;105546;1259;75855;-25
2023/01/27 03:35:03;;;;;;;14.70;6.80;;;;;;;-1.26;78.67;99216.08;105520;1260;74173;-24
2023/01/27 03:48:36;;;;;;;16.50;9.10;;;;;;;-0.21;76.54;99219.91;105803;1259;73949;-25
2023/01/27 03:51:06;;;;;;;23.70;10.70;;;;;;;-0.45;76.64;99222.07;105819;1257;61054;-25
2023/01/27 03:53:34;;;;;;;22.40;11.80;;;;;;;-0.67;77.35;99221.61;105660;1259;61940;-25
2023/01/27 03:56:02;;;;;;;22.80;11.40;;;;;;;-0.87;77.84;99222.23;105853;1254;75328;-26
2023/01/27 03:58:30;;;;;;;20.90;10.60;;;;;;;-1.06;78.11;99219.91;105688;1258;74888;-25
2023/01/27 04:00:59;;;;;;;16.50;7.20;;;;;;;-1.21;78.63;99221.90;105515;1258;74196;-25
2023/01/27 04:09:05;;;;;;;24.60;12.10;;;;;;;0.11;76.94;99208.17;105625;1259;75404;-25
2023/01/27 04:12:05;;;;;;;18.80;9.30;;;;;;;-0.04;76.70;99210.12;105662;1269;76324;-25
2023/01/27 04:14:32;;;;;;;17.10;9.00;;;;;;;-0.32;76.87;99208.66;105712;1254;74035;-25
2023/01/27 04:17:09;;;;;;;19.80;11.00;;;;;;;-0.57;77.32;99208.97;105669;1259;61097;-25
2023/01/27 04:19:36;;;;;;;23.30;10.40;;;;;;;-0.80;77.84;99207.30;105555;1263;61690;-25
2023/01/27 04:22:04;;;;;;;25.30;11.30;;;;;;;-0.95;77.97;99208.85;105615;1254;74734;-25
2023/01/27 04:24:32;;;;;;;15.20;6.90;;;;;;;-1.09;78.10;99212.00;105665;1261;75684;-24
2023/01/27 04:27:02;;;;;;;13.70;6.80;;;;;;;-0.67;78.72;99214.91;105728;1258;74059;-25
2023/01/27 04:29:30;;;;;;;22.00;11.70;;;;;;;0.05;77.94;99218.30;105488;1260;61850;-25
2023/01/27 04:31:58;;;;;;;20.40;10.60;;;;;;;0.26;77.19;99216.70;105699;1260;61609;-26
2023/01/27 04:34:26;;;;;;;18.30;9.40;;;;;;;0.16;76.76;99217.77;105843;1254;75531;-26
2023/01/27 04:36:54;;;;;;;20.90;10.00;;;;;;;-0.03;76.63;99214.85;105751;1260;74727;-33
2023/01/27 04:39:22;;;;;;;24.10;11.80;;;;;;;-0.27;76.74;99217.02;105682;1255;74402;-26
2023/01/27 04:41:50;;;;;;;23.10;11.90;;;;;;;-0.48;77.06;99217.73;105806;1256;61110;-26
2023/01/27 04:44:19;;;;;;;26.70;12.20;;;;;;;-0.68;77.64;99214.45;105757;1266;61704;-30
2023/01/27 04:46:47;;;;;;;25.80;13.10;;;;;;;-0.84;78.07;99214.61;105761;1257;74835;-26
2023/01/27 04:49:14;;;;;;;18.50;7.80;;;;;;;-0.95;78.36;99218.04;105499;1259;73879;-26
2023/01/27 04:51:41;;;;;;;18.20;9.10;;;;;;;-0.53;78.42;99220.13;105600;1254;73980;-26
2023/01/27 04:54:08;;;;;;;29.90;12.70;;;;;;;0.18;77.80;99218.38;105485;1256;61614;-26
2023/01/27 04:56:37;;;;;;;25.70;11.00;;;;;;;0.37;76.80;99221.44;105828;1256;61637;-26
2023/01/27 04:59:06;;;;;;;23.70;11.90;;;;;;;0.21;76.34;99218.59;105660;1258;73342;-26
2023/01/27 05:01:33;;;;;;;26.10;13.20;;;;;;;-0.05;76.25;99212.52;105639;1261;75931;-26
2023/01/27 05:04:01;;;;;;;30.10;14.60;;;;;;;-0.33;76.99;99212.64;105801;1260;74312;-26
2023/01/27 05:06:29;;;;;;;33.10;16.10;;;;;;;-0.57;77.27;99217.52;105536;1255;61123;-26
2023/01/27 05:08:57;;;;;;;29.90;14.90;;;;;;;-0.77;78.02;99216.96;105548;1257;61692;-26
2023/01/27 05:11:24;;;;;;;27.60;13.70;;;;;;;-0.94;78.07;99218.16;105861;1257;75153;-26
2023/01/27 05:13:51;;;;;;;15.70;8.10;;;;;;;-1.06;78.16;99216.33;105853;1257;76210;-26
2023/01/27 05:16:20;;;;;;;18.00;8.30;;;;;;;-0.57;79.01;99214.10;105874;1255;74091;-26
2023/01/27 05:18:48;;;;;;;25.40;12.20;;;;;;;0.13;77.94;99217.16;105602;1257;61160;-26
2023/01/27 05:21:17;;;;;;;29.00;13.30;;;;;;;0.35;77.08;99217.77;105687;1255;61293;-26
2023/01/27 05:23:45;;;;;;;19.70;10.20;;;;;;;0.25;76.85;99214.17;105684;1260;75354;-26
2023/01/27 05:26:19;;;;;;;23.00;10.30;;;;;;;0.04;76.73;99215.63;105567;1256;76538;-26
2023/01/27 05:28:48;;;;;;;22.50;11.10;;;;;;;-0.23;76.95;99218.09;105712;1269;74250;-26
2023/01/27 05:31:19;;;;;;;23.60;12.70;;;;;;;-0.45;77.57;99220.86;105722;1260;60998;-26
2023/01/27 05:33:48;;;;;;;24.60;13.50;;;;;;;-0.68;77.87;99225.69;105673;1261;61692;-26
2023/01/27 05:36:17;;;;;;;27.80;14.30;;;;;;;-0.87;78.13;99226.48;105724;1260;75373;-26
2023/01/27 05:38:44;;;;;;;21.40;8.70;;;;;;;-0.99;78.62;99222.59;105714;1262;75785;-25
2023/01/27 05:41:12;;;;;;;33.20;13.40;;;;;;;-0.54;78.78;99225.77;105321;1260;74004;-26
2023/01/27 05:43:41;;;;;;;25.40;13.50;;;;;;;0.14;77.86;99230.63;105499;1254;61873;-26
2023/01/27 05:46:09;;;;;;;27.80;13.50;;;;;;;0.34;77.33;99233.70;105378;1255;61848;-26
2023/01/27 05:48:39;;;;;;;20.50;11.10;;;;;;;0.21;76.94;99233.63;105297;1261;75157;-26
2023/01/27 05:51:06;;;;;;;26.50;12.20;;;;;;;0.01;77.27;99231.08;105597;1254;75757;-25
2023/01/27 05:53:35;;;;;;;27.70;13.20;;;;;;;-0.24;77.22;99227.33;105555;1258;74074;-26
2023/01/27 05:56:03;;;;;;;25.30;13.00;;;;;;;-0.45;77.48;99235.21;105438;1269;61729;-27
2023/01/27 05:58:31;;;;;;;28.20;14.00;;;;;;;-0.69;78.19;99230.36;105308;1260;61849;-25
2023/01/27 06:01:08;;;;;;;27.40;13.00;;;;;;;-0.89;78.48;99232.00;105527;1254;75146;-25
2023/01/27 06:03:36;;;;;;;16.70;8.70;;;;;;;-0.98;79.08;99232.46;105255;1260;75009;-26
2023/01/27 06:06:04;;;;;;;18.00;9.10;;;;;;;-0.46;79.40;99231.32;105550;1254;74221;-26
2023/01/27 06:08:31;;;;;;;29.50;12.80;;;;;;;0.23;78.27;99229.95;105514;1254;61946;-24
2023/01/27 06:10:59;;;;;;;29.20;12.30;;;;;;;0.32;77.12;99232.05;105674;1256;61161;-24
2023/01/27 06:13:26;;;;;;;29.50;13.60;;;;;;;0.13;76.74;99232.71;105618;1256;75266;-25
2023/01/27 06:15:56;;;;;;;28.80;13.40;;;;;;;-0.14;77.20;99233.66;105557;1260;75565;-26
2023/01/27 06:18:23;;;;;;;27.90;13.70;;;;;;;-0.41;77.97;99235.58;105431;1258;74153;-26
2023/01/27 06:20:52;;;;;;;30.80;12.10;;;;;;;-0.64;78.49;99237.02;105608;1258;61160;-24
2023/01/27 06:23:19;;;;;;;26.60;12.80;;;;;;;-0.85;79.18;99235.45;105761;1257;61260;-25
2023/01/27 06:25:47;;;;;;;27.00;11.10;;;;;;;-0.99;79.77;99236.06;105537;1260;75378;-26
2023/01/27 06:28:15;;;;;;;31.10;13.20;;;;;;;-0.52;79.85;99236.27;105522;1260;75618;-26
2023/01/27 06:31:02;;;;;;;25.00;11.90;;;;;;;0.12;78.54;99236.48;105169;1254;74090;-26
2023/01/27 06:33:30;;;;;;;24.50;12.70;;;;;;;0.22;77.65;99240.77;105349;1254;61205;-25
2023/01/27 06:36:05;;;;;;;26.00;11.00;;;;;;;0.11;77.44;99244.73;105512;1254;61828;-24
2023/01/27 06:38:32;;;;;;;24.00;11.40;;;;;;;-0.09;77.64;99246.61;105436;1259;75182;-27
2023/01/27 06:40:59;;;;;;;26.20;13.30;;;;;;;-0.32;77.41;99248.92;105551;1258;75516;-26
2023/01/27 06:43:29;;;;;;;29.80;13.80;;;;;;;-0.51;78.16;99248.20;105508;1254;74001;-24
2023/01/27 06:45:56;;;;;;;27.10;12.90;;;;;;;-0.65;78.54;99248.12;105569;1254;61061;-24
2023/01/27 06:48:25;;;;;;;19.90;8.70;;;;;;;-0.74;78.68;99246.38;105822;1257;61834;-25
2023/01/27 06:50:53;;;;;;;25.90;11.60;;;;;;;-0.29;78.73;99249.86;105432;1260;74204;-24
2023/01/27 06:53:21;;;;;;;26.60;11.90;;;;;;;0.39;77.67;99252.95;105537;1260;75833;-24
2023/01/27 06:55:48;;;;;;;27.10;12.20;;;;;;;0.61;76.56;99248.91;105733;1259;72893;-24
2023/01/27 06:58:15;;;;;;;24.40;10.70;;;;;;;0.49;76.03;99249.20;105670;1259;61198;-24
2023/01/27 07:00:43;;;;;;;25.10;13.10;;;;;;;0.33;76.10;99244.98;105621;1263;61129;-24
2023/01/27 07:03:11;;;;;;;22.30;10.80;;;;;;;0.15;76.22;99243.41;105877;1254;74976;-24
2023/01/27 07:05:38;;;;;;;29.10;13.70;;;;;;;-0.06;76.30;99243.95;105869;1257;75787;-24
2023/01/27 07:09:54;;;;;;;27.90;12.70;;;;;;;-0.34;77.22;99247.98;102687;1292;601124;-26
2023/01/27 07:12:23;;;;;;;15.60;7.70;;;;;;;-0.48;77.79;99248.59;105086;1265;62527;-26
2023/01/27 07:14:52;;;;;;;23.80;10.90;;;;;;;0.03;77.94;99246.39;105109;1264;61623;-26
2023/01/27 07:17:21;;;;;;;22.80;10.90;;;;;;;0.70;76.58;99242.61;105170;1268;72430;-26
2023/01/27 07:19:49;;;;;;;24.00;12.80;;;;;;;0.89;75.86;99246.02;105096;1266;75785;-26
2023/01/27 07:22:19;;;;;;;28.40;11.70;;;;;;;0.82;75.48;99247.64;104863;1267;74121;-26
2023/01/27 07:24:48;;;;;;;21.40;10.70;;;;;;;0.63;75.40;99247.13;104499;1259;61202;-26
2023/01/27 07:27:17;;;;;;;32.70;15.40;;;;;;;0.48;75.75;99251.45;105570;1257;61918;-26
2023/01/27 07:29:45;;;;;;;29.30;13.90;;;;;;;0.29;75.71;99252.30;105296;1259;73626;-26
2023/01/27 07:32:14;;;;;;;23.80;12.40;;;;;;;0.07;75.83;99251.36;105287;1256;75870;-26
2023/01/27 07:34:43;;;;;;;38.90;20.30;;;;;;;-0.07;76.24;99254.59;105394;1257;74119;-26
2023/01/27 07:37:12;;;;;;;46.10;23.40;;;;;;;-0.17;76.84;99254.39;105475;1258;61118;-26
2023/01/27 07:39:41;;;;;;;21.70;8.90;;;;;;;-0.23;77.16;99258.36;105404;1261;61098;-26
2023/01/27 07:42:12;;;;;;;30.60;14.00;;;;;;;0.29;77.09;99261.16;105572;1257;74503;-26
2023/01/27 07:44:40;;;;;;;30.70;15.00;;;;;;;0.96;75.55;99259.23;105480;1258;75399;-26
2023/01/27 07:47:09;;;;;;;123.80;59.80;;;;;;;1.09;73.94;99257.05;105605;1262;73122;-26
2023/01/27 07:49:37;;;;;;;28.70;14.50;;;;;;;1.00;73.99;99257.55;105600;1257;61652;-26
2023/01/27 07:52:06;;;;;;;116.50;52.10;;;;;;;0.78;74.17;99259.41;105337;1261;61591;-25
2023/01/27 07:54:36;;;;;;;81.30;36.10;;;;;;;0.51;74.75;99258.32;105340;1256;74379;-25
2023/01/27 07:57:04;;;;;;;87.60;36.90;;;;;;;-0.18;76.74;99257.33;105191;1262;75639;-26
2023/01/27 07:59:34;;;;;;;75.90;36.20;;;;;;;-0.20;77.86;99258.77;105379;1270;73949;-26
2023/01/27 08:02:03;;;;;;;121.30;46.20;;;;;;;-0.53;79.26;99253.35;105459;1256;61076;-26
2023/01/27 08:04:31;;;;;;;32.30;14.50;;;;;;;-0.51;79.73;99256.38;105487;1262;61751;-26
2023/01/27 08:07:19;;;;;;;73.40;27.70;;;;;;;0.42;78.39;99252.66;105647;1262;74644;-26
2023/01/27 08:09:48;;;;;;;36.70;18.40;;;;;;;0.61;76.16;99253.00;105633;1262;75920;-26
2023/01/27 08:12:16;;;;;;;95.00;38.60;;;;;;;0.51;75.88;99256.83;105247;1256;73157;-26
2023/01/27 08:14:45;;;;;;;65.30;28.50;;;;;;;0.33;76.21;99257.29;105301;1257;61197;-25
2023/01/27 08:17:14;;;;;;;40.20;17.50;;;;;;;0.30;76.47;99259.61;105171;1262;61883;-26
2023/01/27 08:19:42;;;;;;;43.10;18.30;;;;;;;0.15;76.38;99262.70;105308;1260;74570;-26
2023/01/27 08:22:16;;;;;;;42.80;20.00;;;;;;;0.01;76.56;99260.61;105217;1262;75643;-26
2023/01/27 08:24:44;;;;;;;35.50;18.10;;;;;;;-0.18;77.33;99260.91;105112;1262;74139;-25
2023/01/27 08:27:13;;;;;;;36.20;14.90;;;;;;;-0.29;77.80;99254.97;105234;1257;61180;-26
2023/01/27 08:29:42;;;;;;;30.30;13.90;;;;;;;-0.37;77.51;99253.88;105561;1262;61590;-26
2023/01/27 08:32:11;;;;;;;20.90;9.50;;;;;;;-0.44;77.78;99256.50;105502;1262;74555;-26
2023/01/27 08:34:42;;;;;;;21.10;10.60;;;;;;;0.16;77.88;99258.23;105370;1262;74198;-26
2023/01/27 08:37:11;;;;;;;32.40;15.50;;;;;;;0.89;76.00;99260.87;105309;1262;74191;-26
2023/01/27 08:39:40;;;;;;;28.10;12.80;;;;;;;1.05;74.75;99261.63;105255;1257;61728;-24
2023/01/27 08:42:09;;;;;;;28.10;12.80;;;;;;;0.89;74.22;99260.69;105282;1260;61713;-25
2023/01/27 08:44:38;;;;;;;23.20;11.30;;;;;;;0.66;74.58;99260.16;105329;1260;74540;-25
2023/01/27 08:47:06;;;;;;;28.10;13.70;;;;;;;0.42;75.12;99255.92;105289;1261;75526;-25
2023/01/27 08:49:35;;;;;;;26.70;12.40;;;;;;;0.10;75.90;99253.48;105185;1262;74247;-25
2023/01/27 08:52:04;;;;;;;44.60;20.40;;;;;;;-0.23;77.22;99251.20;105408;1259;60997;-25
2023/01/27 08:54:33;;;;;;;139.70;74.40;;;;;;;-0.68;79.51;99247.52;105339;1262;61698;-25
2023/01/27 08:57:01;;;;;;;32.20;15.40;;;;;;;-0.56;80.33;99243.73;105316;1260;74503;-25
2023/01/27 08:59:30;;;;;;;24.10;12.90;;;;;;;0.21;78.34;99243.02;105454;1262;76039;-25
2023/01/27 09:01:59;;;;;;;62.80;28.30;;;;;;;0.67;76.14;99240.13;105306;1257;73952;-25
2023/01/27 09:04:29;;;;;;;35.10;16.00;;;;;;;0.61;75.61;99236.98;105212;1256;61948;-25
2023/01/27 09:06:58;;;;;;;34.00;15.50;;;;;;;0.56;75.76;99238.00;105301;1256;61118;-25
2023/01/27 09:09:27;;;;;;;25.90;12.60;;;;;;;0.37;76.04;99235.95;105240;1260;74462;-25
2023/01/27 09:11:55;;;;;;;33.70;14.50;;;;;;;0.10;76.15;99234.17;105237;1261;75910;-25
2023/01/27 09:14:28;;;;;;;34.50;17.10;;;;;;;-0.10;76.77;99233.86;105311;1263;74329;-25
2023/01/27 09:16:56;;;;;;;32.70;14.00;;;;;;;-0.25;77.19;99236.06;105211;1257;61163;-26
2023/01/27 09:19:25;;;;;;;32.60;16.50;;;;;;;-0.39;78.06;99236.88;105224;1262;61592;-25
2023/01/27 09:21:54;;;;;;;21.60;10.90;;;;;;;-0.50;78.63;99240.81;105510;1260;74525;-25
2023/01/27 09:24:23;;;;;;;35.30;14.20;;;;;;;-0.03;78.57;99241.30;105264;1258;75369;-25
2023/01/27 09:26:52;;;;;;;76.10;30.90;;;;;;;0.66;77.26;99239.67;105372;1260;74376;-25
2023/01/27 09:29:21;;;;;;;31.90;15.80;;;;;;;0.91;75.87;99236.02;105481;1262;61317;-26
2023/01/27 09:31:50;;;;;;;52.30;24.70;;;;;;;0.84;75.64;99234.75;105371;1263;61841;-26
2023/01/27 09:34:19;;;;;;;74.80;31.70;;;;;;;0.36;75.97;99236.33;105356;1263;74826;-27
2023/01/27 09:36:51;;;;;;;51.20;23.30;;;;;;;0.20;76.67;99237.58;105477;1263;76213;-24
2023/01/27 09:39:19;;;;;;;39.90;18.60;;;;;;;0.01;77.30;99236.72;105142;1262;73221;-25
2023/01/27 09:41:52;;;;;;;52.90;24.60;;;;;;;-0.08;77.46;99234.31;105074;1263;61163;-25
2023/01/27 09:44:24;;;;;;;;;;;;;;;-0.58;79.29;99232.39;105341;1258;61628;-25
2023/01/27 09:47:15;;;;;;;36.90;11.50;;;;;;;-0.45;80.26;99234.52;105295;1258;74551;-25
2023/01/27 09:49:49;;;;;;;35.10;15.70;;;;;;;0.64;77.98;99233.59;105361;1257;75114;-25
2023/01/27 09:52:53;;;;;;;28.40;12.30;;;;;;;1.00;75.09;99231.90;105466;1263;73119;-26
2023/01/27 09:55:53;;;;;;;25.30;12.70;;;;;;;0.85;74.25;99233.33;105212;1263;61605;-25
2023/01/27 09:58:43;;;;;;;31.00;13.80;;;;;;;0.59;74.84;99225.58;105161;1262;61595;-25
2023/01/27 10:01:17;;;;;;;24.90;11.30;;;;;;;0.30;75.59;99231.09;105602;1260;74356;-25
2023/01/27 10:04:14;;;;;;;18.70;10.00;;;;;;;0.06;76.13;99234.00;105598;1260;74730;-25
2023/01/27 10:06:48;;;;;;;25.60;12.40;;;;;;;-0.07;76.19;99237.67;105451;1258;74194;-25
2023/01/27 10:09:31;;;;;;;22.20;11.50;;;;;;;-0.21;77.04;99240.73;105130;1258;61223;-25
2023/01/27 10:12:31;;;;;;;15.80;7.60;;;;;;;-0.23;77.20;99239.76;105440;1271;61679;-25
2023/01/27 10:15:55;;;;;;;18.60;10.00;;;;;;;0.56;76.79;99243.98;105515;1264;74470;-25
2023/01/27 10:18:26;;;;;;;27.30;13.20;;;;;;;1.33;74.61;99247.03;105260;1260;75820;-26
2023/01/27 10:21:18;;;;;;;29.80;14.30;;;;;;;1.24;73.06;99244.48;105289;1263;74212;-26
2023/01/27 10:23:59;;;;;;;29.90;13.80;;;;;;;1.05;73.35;99241.45;105542;1259;61140;-26
2023/01/27 10:26:35;;;;;;;29.40;15.10;;;;;;;0.82;73.88;99236.86;105195;1262;61886;-25
2023/01/27 10:29:13;;;;;;;38.20;18.10;;;;;;;0.66;74.39;99234.05;105228;1262;73947;-26
2023/01/27 10:31:51;;;;;;;32.10;15.90;;;;;;;0.49;75.21;99235.34;105480;1263;76026;-25
2023/01/27 10:34:24;;;;;;;27.90;13.20;;;;;;;0.32;75.33;99236.98;105281;1257;74146;-26
2023/01/27 10:37:34;;;;;;;36.00;16.90;;;;;;;0.11;75.61;99230.38;105335;1256;61093;-26
2023/01/27 10:40:32;;;;;;;23.70;11.20;;;;;;;0.02;76.98;99240.27;105368;1262;62288;-25
2023/01/27 10:43:03;;;;;;;27.20;12.70;;;;;;;0.96;75.87;99237.68;105353;1261;74546;-26
2023/01/27 10:45:46;;;;;;;31.50;16.00;;;;;;;1.39;73.48;99239.60;105472;1257;75937;-26
2023/01/27 10:48:20;;;;;;;29.20;13.70;;;;;;;1.29;72.69;99237.24;105475;1258;73962;-25
2023/01/27 10:51:02;;;;;;;28.40;13.20;;;;;;;1.16;72.97;99235.56;105301;1262;61089;-25
2023/01/27 10:54:11;;;;;;;32.90;16.70;;;;;;;0.96;73.65;99234.42;105132;1258;61536;-25
2023/01/27 10:56:41;;;;;;;40.30;18.60;;;;;;;0.75;74.46;99226.89;105502;1258;74654;-25
2023/01/27 10:59:21;;;;;;;31.10;15.20;;;;;;;0.36;75.48;99226.27;105469;1263;74994;-25
2023/01/27 11:02:18;;;;;;;33.20;15.20;;;;;;;0.29;75.59;99222.74;105284;1263;73191;-25
2023/01/27 11:04:48;;;;;;;23.50;10.30;;;;;;;0.24;75.85;99226.71;105448;1262;61515;-25
2023/01/27 11:07:18;;;;;;;15.90;8.00;;;;;;;0.39;75.82;99227.02;105243;1263;61088;-26
2023/01/27 11:09:52;;;;;;;21.60;10.30;;;;;;;1.14;74.90;99222.61;105235;1265;74501;-25
2023/01/27 11:12:33;;;;;;;27.80;14.00;;;;;;;1.52;73.07;99218.52;105374;1261;74685;-25
2023/01/27 11:15:13;;;;;;;23.90;10.90;;;;;;;1.38;72.08;99217.08;105238;1257;74180;-25
2023/01/27 11:17:52;;;;;;;21.60;11.10;;;;;;;1.14;72.68;99213.77;105093;1264;61249;-26
2023/01/27 11:20:29;;;;;;;22.50;9.50;;;;;;;0.97;73.12;99213.70;105443;1263;61825;-25
2023/01/27 11:23:21;;;;;;;22.00;10.00;;;;;;;0.77;73.59;99213.63;105238;1263;74551;-25
2023/01/27 11:26:11;;;;;;;20.60;8.30;;;;;;;0.48;74.03;99216.41;105241;1261;74793;-25
2023/01/27 11:29:05;;;;;;;26.10;12.20;;;;;;;0.25;74.74;99212.30;105088;1258;74162;-25
2023/01/27 11:31:50;;;;;;;16.60;8.40;;;;;;;0.05;76.46;99201.92;105081;1258;61625;-25
2023/01/27 11:34:39;;;;;;;14.30;6.90;;;;;;;0.68;75.42;99200.97;105291;1264;61812;-25
2023/01/27 11:37:20;;;;;;;23.50;11.70;;;;;;;1.38;73.62;99204.23;105427;1258;75399;-26
2023/01/27 11:39:48;;;;;;;16.30;8.70;;;;;;;1.40;72.67;99194.89;105287;1263;74841;-25
2023/01/27 11:42:17;;;;;;;19.50;10.30;;;;;;;1.28;72.53;99189.05;105517;1257;74222;-25
2023/01/27 11:44:45;;;;;;;13.00;7.10;;;;;;;1.07;72.77;99188.36;105505;1262;61377;-26
2023/01/27 11:47:26;;;;;;;19.30;9.40;;;;;;;0.86;73.46;99189.89;105583;1261;61878;-25
2023/01/27 11:49:55;;;;;;;15.10;8.70;;;;;;;0.67;73.91;99190.26;105263;1264;74167;-25
2023/01/27 11:52:26;;;;;;;27.40;11.80;;;;;;;0.52;74.49;99188.44;105609;1260;76203;-25
2023/01/27 11:54:54;;;;;;;20.80;11.00;;;;;;;0.34;75.22;99186.89;105551;1263;74375;-25
2023/01/27 11:57:25;;;;;;;18.40;8.40;;;;;;;0.23;75.61;99196.16;105148;1264;62866;-25
2023/01/27 12:00:04;;;;;;;21.60;10.60;;;;;;;0.77;75.68;99195.34;105099;1263;61209;-25
2023/01/27 12:02:42;;;;;;;10.90;6.30;;;;;;;1.45;73.46;99197.44;105146;1264;75367;-25
2023/01/27 12:05:14;;;;;;;21.70;9.90;;;;;;;1.45;71.79;99194.68;105311;1264;75559;-25
2023/01/27 12:07:55;;;;;;;26.30;12.90;;;;;;;1.27;72.19;99193.20;105235;1259;74148;-26